createdAt,value
2018-02-25T00:00:23.630Z,65.18
2018-02-25T00:02:51.963Z,65.54
2018-02-25T00:05:20.283Z,65.15
2018-02-25T00:07:48.650Z,65.53
2018-02-25T00:10:16.959Z,65.28
2018-02-25T00:12:45.297Z,65.16
2018-02-25T00:15:13.682Z,65.35
2018-02-25T00:17:42.026Z,65.32
2018-02-25T00:20:10.351Z,65.39
2018-02-25T00:22:38.682Z,65.76
2018-02-25T00:25:06.998Z,66.26
2018-02-25T00:27:35.361Z,66.21
2018-02-25T00:30:03.733Z,66.05
2018-02-25T00:32:32.083Z,65.69
2018-02-25T00:35:00.403Z,65.91
2018-02-25T00:37:28.742Z,65.93
2018-02-25T00:39:57.143Z,66.28
2018-02-25T00:42:25.522Z,66.06
2018-02-25T00:44:53.842Z,66.04
2018-02-25T00:47:22.157Z,65.96
2018-02-25T00:49:50.546Z,66.31
2018-02-25T00:52:18.872Z,66.58
2018-02-25T00:54:47.206Z,66.17
2018-02-25T00:57:15.531Z,66.25
2018-02-25T00:59:43.957Z,66.50
2018-02-25T01:02:12.278Z,66.43
2018-02-25T01:04:40.712Z,66.89
2018-02-25T01:07:09.097Z,67.23
2018-02-25T01:09:37.466Z,67.06
2018-02-25T01:12:05.854Z,67.12
2018-02-25T01:14:34.221Z,67.34
2018-02-25T01:17:02.547Z,67.27
2018-02-25T01:19:30.887Z,67.50
2018-02-25T01:21:59.210Z,67.38
2018-02-25T01:24:27.622Z,67.58
2018-02-25T01:26:55.941Z,67.37
2018-02-25T01:29:24.383Z,67.73
2018-02-25T01:31:52.759Z,67.55
2018-02-25T01:34:21.141Z,67.24
2018-02-25T01:36:49.462Z,67.41
2018-02-25T01:39:17.802Z,67.54
2018-02-25T01:41:46.121Z,67.44
2018-02-25T01:44:14.541Z,67.23
2018-02-25T01:46:42.862Z,67.24
2018-02-25T01:49:11.201Z,67.43
2018-02-25T01:51:39.524Z,67.45
2018-02-25T01:54:07.954Z,67.20
2018-02-25T01:56:36.274Z,67.34
2018-02-25T01:59:04.610Z,67.49
2018-02-25T02:01:32.929Z,67.38
2018-02-25T02:04:01.358Z,67.54
2018-02-25T02:06:29.683Z,67.66
2018-02-25T02:08:58.115Z,67.94
2018-02-25T02:11:26.433Z,67.93
2018-02-25T02:13:54.777Z,67.94
2018-02-25T02:16:23.134Z,67.90
2018-02-25T02:18:51.518Z,67.73
2018-02-25T02:21:19.839Z,67.88
2018-02-25T02:23:48.174Z,68.00
2018-02-25T02:26:16.498Z,67.97
2018-02-25T02:28:44.927Z,68.18
2018-02-25T02:31:13.302Z,68.38
2018-02-25T02:33:41.647Z,68.01
2018-02-25T02:36:10.054Z,68.37
2018-02-25T02:38:38.406Z,68.85
2018-02-25T02:41:06.818Z,68.62
2018-02-25T02:43:35.190Z,69.08
2018-02-25T02:46:03.504Z,68.56
2018-02-25T02:48:31.944Z,68.87
2018-02-25T02:51:00.285Z,69.24
2018-02-25T02:53:28.691Z,69.40
2018-02-25T02:55:57.073Z,69.61
2018-02-25T02:58:25.418Z,69.29
2018-02-25T03:00:53.825Z,69.38
2018-02-25T03:03:22.141Z,69.47
2018-02-25T03:05:50.473Z,69.40
2018-02-25T03:08:18.792Z,69.69
2018-02-25T03:10:47.249Z,70.19
2018-02-25T03:13:15.550Z,70.31
2018-02-25T03:15:43.890Z,70.04
2018-02-25T03:18:12.291Z,70.19
2018-02-25T03:20:40.618Z,70.13
2018-02-25T03:23:08.956Z,70.11
2018-02-25T03:25:37.285Z,70.09
2018-02-25T03:28:05.674Z,70.21
2018-02-25T03:30:34.011Z,70.19
2018-02-25T03:33:02.329Z,70.61
2018-02-25T03:35:30.662Z,70.60
2018-02-25T03:37:58.977Z,71.12
2018-02-25T03:40:27.318Z,71.04
2018-02-25T03:42:55.729Z,71.43
2018-02-25T03:45:24.111Z,71.24
2018-02-25T03:47:52.425Z,71.13
2018-02-25T03:50:20.858Z,71.33
2018-02-25T03:52:49.177Z,71.42
2018-02-25T03:55:17.518Z,71.47
2018-02-25T03:57:45.889Z,71.66
2018-02-25T04:00:14.230Z,71.83
2018-02-25T04:02:42.549Z,72.12
2018-02-25T04:05:10.913Z,72.17
2018-02-25T04:07:39.238Z,72.24
2018-02-25T04:10:07.669Z,72.34
2018-02-25T04:12:35.990Z,72.42
2018-02-25T04:15:04.326Z,72.83
2018-02-25T04:17:32.681Z,73.26
2018-02-25T04:20:01.083Z,73.77
2018-02-25T04:22:29.401Z,73.29
2018-02-25T04:24:57.737Z,73.03
2018-02-25T04:27:26.114Z,72.95
2018-02-25T04:29:54.490Z,73.49
2018-02-25T04:32:22.861Z,73.39
2018-02-25T04:34:51.207Z,73.03
2018-02-25T04:37:19.621Z,73.17
2018-02-25T04:39:47.957Z,72.84
2018-02-25T04:42:16.293Z,72.54
2018-02-25T04:44:44.629Z,72.52
2018-02-25T04:47:12.941Z,72.14
2018-02-25T04:49:41.307Z,71.95
2018-02-25T04:52:09.626Z,71.72
2018-02-25T04:54:38.009Z,71.70
2018-02-25T04:57:06.425Z,71.91
2018-02-25T04:59:34.751Z,72.24
2018-02-25T05:02:03.186Z,72.62
2018-02-25T05:04:31.566Z,72.78
2018-02-25T05:06:59.906Z,73.06
2018-02-25T05:09:28.233Z,73.30
2018-02-25T05:11:56.574Z,72.88
2018-02-25T05:14:24.885Z,72.70
2018-02-25T05:16:53.226Z,73.12
2018-02-25T05:19:21.537Z,73.35
2018-02-25T05:21:49.873Z,73.87
2018-02-25T05:24:18.201Z,73.82
2018-02-25T05:26:46.649Z,74.03
2018-02-25T05:29:14.974Z,74.00
2018-02-25T05:31:43.494Z,74.33
2018-02-25T05:34:11.806Z,74.26
2018-02-25T05:36:40.145Z,74.02
2018-02-25T05:39:08.584Z,74.16
2018-02-25T05:41:37.024Z,74.30
2018-02-25T05:44:05.399Z,74.06
2018-02-25T05:46:33.737Z,74.46
2018-02-25T05:49:02.148Z,74.14
2018-02-25T05:51:30.494Z,74.33
2018-02-25T05:53:58.806Z,74.51
2018-02-25T05:56:27.182Z,75.12
2018-02-25T05:58:55.494Z,74.84
2018-02-25T06:01:23.830Z,74.33
2018-02-25T06:03:52.206Z,74.91
2018-02-25T06:06:20.545Z,74.84
2018-02-25T06:08:48.965Z,74.83
2018-02-25T06:11:17.346Z,75.34
2018-02-25T06:13:45.657Z,75.03
2018-02-25T06:16:14.098Z,74.69
2018-02-25T06:18:42.469Z,74.73
2018-02-25T06:21:10.810Z,74.37
2018-02-25T06:23:39.236Z,74.43
2018-02-25T06:26:07.605Z,74.45
2018-02-25T06:28:35.986Z,74.48
2018-02-25T06:31:04.361Z,74.29
2018-02-25T06:33:32.678Z,74.18
2018-02-25T06:36:01.009Z,74.60
2018-02-25T06:38:29.325Z,74.36
2018-02-25T06:40:57.766Z,74.10
2018-02-25T06:43:26.088Z,73.90
2018-02-25T06:45:55.343Z,73.96
2018-02-25T06:48:23.653Z,74.24
2018-02-25T06:50:52.093Z,74.00
2018-02-25T06:53:20.478Z,74.07
2018-02-25T06:55:48.814Z,74.16
2018-02-25T06:58:17.225Z,74.38
2018-02-25T07:00:45.538Z,74.01
2018-02-25T07:03:13.985Z,73.96
2018-02-25T07:05:42.313Z,73.99
2018-02-25T07:08:10.646Z,74.09
2018-02-25T07:10:38.964Z,73.81
2018-02-25T07:13:07.306Z,73.84
2018-02-25T07:15:35.628Z,74.02
2018-02-25T07:18:04.100Z,74.10
2018-02-25T07:20:32.422Z,73.94
2018-02-25T07:23:00.770Z,73.71
2018-02-25T07:25:29.095Z,73.60
2018-02-25T07:27:57.454Z,73.30
2018-02-25T07:30:25.792Z,73.97
2018-02-25T07:32:54.206Z,73.53
2018-02-25T07:35:22.583Z,72.71
2018-02-25T07:37:50.957Z,72.77
2018-02-25T07:40:19.290Z,73.02
2018-02-25T07:42:47.689Z,73.05
2018-02-25T07:45:16.093Z,72.88
2018-02-25T07:47:44.469Z,72.39
2018-02-25T07:50:13.294Z,72.88
2018-02-25T07:52:41.651Z,72.39
2018-02-25T07:55:09.974Z,71.76
2018-02-25T07:57:38.393Z,72.15
2018-02-25T08:00:06.718Z,71.61
2018-02-25T08:02:35.060Z,71.75
2018-02-25T08:05:03.385Z,71.47
2018-02-25T08:07:31.802Z,70.62
2018-02-25T08:10:00.131Z,70.14
2018-02-25T08:12:28.482Z,69.80
2018-02-25T08:14:56.802Z,69.75
2018-02-25T08:17:25.201Z,69.08
2018-02-25T08:19:53.527Z,68.58
2018-02-25T08:22:21.929Z,68.12
2018-02-25T08:24:50.268Z,67.33
2018-02-25T08:27:18.677Z,67.62
2018-02-25T08:29:47.053Z,67.20
2018-02-25T08:32:15.470Z,66.84
2018-02-25T08:34:43.831Z,67.13
2018-02-25T08:37:12.218Z,65.51
2018-02-25T08:39:40.544Z,65.45
2018-02-25T08:42:08.881Z,64.34
2018-02-25T08:44:37.254Z,63.60
2018-02-25T08:47:05.831Z,62.88
2018-02-25T08:49:34.215Z,62.62
2018-02-25T08:52:02.687Z,63.61
2018-02-25T08:54:31.018Z,64.21
2018-02-25T08:56:59.438Z,64.14
2018-02-25T08:59:27.761Z,64.27
2018-02-25T09:01:56.093Z,63.26
2018-02-25T09:04:24.450Z,62.50
2018-02-25T09:06:52.770Z,61.31
2018-02-25T09:09:21.121Z,60.98
2018-02-25T09:11:49.505Z,60.86
2018-02-25T09:14:17.878Z,60.89
2018-02-25T09:16:46.256Z,60.90
2018-02-25T09:19:14.733Z,59.52
2018-02-25T09:21:43.053Z,59.07
2018-02-25T09:24:11.394Z,58.92
2018-02-25T09:26:39.761Z,57.87
2018-02-25T09:29:08.108Z,57.76
2018-02-25T09:31:36.514Z,57.66
2018-02-25T09:34:04.889Z,58.17
2018-02-25T09:36:33.214Z,57.85
2018-02-25T09:39:01.650Z,57.36
2018-02-25T09:41:29.992Z,56.59
2018-02-25T09:43:58.329Z,54.91
2018-02-25T09:46:27.558Z,55.31
2018-02-25T09:48:55.893Z,56.31
2018-02-25T09:51:24.214Z,54.51
2018-02-25T09:53:52.629Z,55.69
2018-02-25T09:56:20.949Z,53.89
2018-02-25T09:58:49.286Z,52.53
2018-02-25T10:01:17.660Z,52.81
2018-02-25T10:03:46.035Z,52.07
2018-02-25T10:06:14.409Z,52.68
2018-02-25T10:08:42.764Z,52.03
2018-02-25T10:11:11.117Z,52.25
2018-02-25T10:13:39.451Z,51.29
2018-02-25T10:16:07.769Z,51.55
2018-02-25T10:18:36.197Z,50.67
2018-02-25T10:21:04.530Z,50.78
2018-02-25T10:23:32.953Z,51.73
2018-02-25T10:26:01.327Z,50.86
2018-02-25T10:28:29.670Z,50.76
2018-02-25T10:30:57.999Z,49.72
2018-02-25T10:33:26.338Z,49.95
2018-02-25T10:35:54.734Z,50.04
2018-02-25T10:38:23.109Z,49.42
2018-02-25T10:40:51.440Z,49.74
2018-02-25T10:43:19.786Z,49.37
2018-02-25T10:45:48.105Z,49.14
2018-02-25T10:48:16.520Z,49.88
2018-02-25T10:50:44.950Z,49.25
2018-02-25T10:53:13.273Z,49.39
2018-02-25T10:55:41.887Z,49.72
2018-02-25T10:58:10.229Z,48.93
2018-02-25T11:00:38.553Z,49.65
2018-02-25T11:03:07.038Z,48.98
2018-02-25T11:05:35.454Z,49.39
2018-02-25T11:08:03.739Z,49.21
2018-02-25T11:10:32.078Z,49.06
2018-02-25T11:13:00.402Z,48.55
2018-02-25T11:15:28.802Z,48.72
2018-02-25T11:17:57.158Z,48.61
2018-02-25T11:20:25.493Z,49.51
2018-02-25T11:22:53.809Z,48.70
2018-02-25T11:25:22.157Z,48.63
2018-02-25T11:27:50.477Z,48.57
2018-02-25T11:30:18.822Z,48.90
2018-02-25T11:32:47.466Z,48.98
2018-02-25T11:35:15.993Z,49.00
2018-02-25T11:37:44.369Z,49.18
2018-02-25T11:40:12.742Z,49.65
2018-02-25T11:42:41.222Z,49.21
2018-02-25T11:45:09.574Z,49.18
2018-02-25T11:47:37.899Z,48.68
2018-02-25T11:50:06.278Z,49.17
2018-02-25T11:52:34.608Z,48.34
2018-02-25T11:55:02.993Z,48.80
2018-02-25T11:57:31.323Z,48.29
2018-02-25T11:59:59.661Z,48.22
2018-02-25T12:02:27.997Z,49.45
2018-02-25T12:04:56.426Z,48.87
2018-02-25T12:07:24.749Z,48.92
2018-02-25T12:09:53.741Z,48.24
2018-02-25T12:12:22.131Z,49.33
2018-02-25T12:14:50.472Z,48.91
2018-02-25T12:17:18.829Z,49.20
2018-02-25T12:19:47.214Z,48.31
2018-02-25T12:22:15.532Z,48.13
2018-02-25T12:24:43.890Z,47.70
2018-02-25T12:27:12.277Z,48.67
2018-02-25T12:29:40.624Z,48.92
2018-02-25T12:32:09.017Z,48.24
2018-02-25T12:34:37.427Z,48.32
2018-02-25T12:37:05.754Z,48.40
2018-02-25T12:39:34.168Z,48.11
2018-02-25T12:42:02.572Z,47.80
2018-02-25T12:44:30.913Z,47.96
2018-02-25T12:46:59.270Z,47.40
2018-02-25T12:49:28.446Z,48.36
2018-02-25T12:51:56.773Z,47.46
2018-02-25T12:54:25.132Z,47.80
2018-02-25T12:56:53.449Z,47.50
2018-02-25T12:59:21.800Z,47.34
2018-02-25T13:01:50.211Z,47.73
2018-02-25T13:04:18.570Z,47.47
2018-02-25T13:06:46.962Z,47.98
2018-02-25T13:09:15.287Z,48.28
2018-02-25T13:11:43.626Z,47.48
2018-02-25T13:14:11.999Z,48.61
2018-02-25T13:16:41.288Z,47.51
2018-02-25T13:19:09.639Z,47.39
2018-02-25T13:21:38.090Z,46.83
2018-02-25T13:24:06.423Z,47.60
2018-02-25T13:26:35.737Z,47.51
2018-02-25T13:29:04.134Z,47.69
2018-02-25T13:31:32.473Z,47.61
2018-02-25T13:34:00.802Z,47.68
2018-02-25T13:36:29.243Z,47.88
2018-02-25T13:38:57.569Z,48.39
2018-02-25T13:41:25.905Z,47.98
2018-02-25T13:43:54.229Z,48.01
2018-02-25T13:46:22.574Z,47.42
2018-02-25T13:48:50.930Z,48.03
2018-02-25T13:51:19.319Z,47.71
2018-02-25T13:53:47.657Z,48.58
2018-02-25T13:56:17.066Z,48.14
2018-02-25T13:58:45.671Z,47.77
2018-02-25T14:01:14.405Z,47.98
2018-02-25T14:03:43.522Z,48.78
2018-02-25T14:06:13.408Z,49.28
2018-02-25T14:08:41.857Z,50.01
2018-02-25T14:11:10.489Z,49.46
2018-02-25T14:13:39.013Z,49.86
2018-02-25T14:16:08.602Z,49.17
2018-02-25T14:18:36.922Z,49.35
2018-02-25T14:21:05.268Z,50.48
2018-02-25T14:23:33.630Z,50.67
2018-02-25T14:26:01.980Z,50.07
2018-02-25T14:28:30.299Z,51.07
2018-02-25T14:30:58.638Z,50.22
2018-02-25T14:33:26.966Z,50.36
2018-02-25T14:35:55.305Z,50.24
2018-02-25T14:38:23.633Z,51.03
2018-02-25T14:40:52.069Z,50.79
2018-02-25T14:43:20.398Z,51.91
2018-02-25T14:45:48.910Z,51.06
2018-02-25T14:48:17.535Z,51.02
2018-02-25T14:50:45.887Z,51.28
2018-02-25T14:53:14.213Z,52.31
2018-02-25T14:55:42.567Z,51.59
2018-02-25T14:58:10.887Z,52.11
2018-02-25T15:00:39.270Z,51.95
2018-02-25T15:03:07.605Z,52.78
2018-02-25T15:05:35.956Z,53.41
2018-02-25T15:08:05.173Z,52.86
2018-02-25T15:10:33.532Z,53.32
2018-02-25T15:13:01.902Z,54.35
2018-02-25T15:15:30.234Z,54.76
2018-02-25T15:17:58.578Z,55.18
2018-02-25T15:20:26.894Z,57.17
2018-02-25T15:22:55.233Z,57.67
2018-02-25T15:25:23.557Z,58.25
2018-02-25T15:27:52.010Z,58.87
2018-02-25T15:30:20.334Z,59.74
2018-02-25T15:32:48.718Z,59.46
2018-02-25T15:35:17.034Z,60.10
2018-02-25T15:37:45.605Z,60.71
2018-02-25T15:40:13.937Z,60.77
2018-02-25T15:42:42.336Z,62.35
2018-02-25T15:45:10.641Z,62.28
2018-02-25T15:47:39.638Z,62.81
2018-02-25T15:50:08.166Z,63.38
2018-02-25T15:52:36.522Z,62.40
2018-02-25T15:55:04.918Z,62.35
2018-02-25T15:57:34.134Z,61.95
2018-02-25T16:00:02.504Z,62.52
2018-02-25T16:02:30.995Z,62.51
2018-02-25T16:04:59.347Z,61.99
2018-02-25T16:07:27.702Z,62.48
2018-02-25T16:09:56.083Z,62.98
2018-02-25T16:12:24.433Z,62.63
2018-02-25T16:14:52.862Z,62.72
2018-02-25T16:17:21.210Z,63.11
2018-02-25T16:19:49.535Z,63.63
2018-02-25T16:22:18.866Z,63.61
2018-02-25T16:24:48.060Z,63.82
2018-02-25T16:27:18.797Z,63.87
2018-02-25T16:29:48.364Z,65.03
2018-02-25T16:32:17.423Z,64.84
2018-02-25T16:34:47.290Z,65.62
2018-02-25T16:37:16.190Z,66.57
2018-02-25T16:39:44.885Z,67.40
2018-02-25T16:42:13.605Z,67.99
2018-02-25T16:44:42.048Z,68.40
2018-02-25T16:47:10.661Z,69.24
2018-02-25T16:49:39.205Z,69.91
2018-02-25T16:52:07.814Z,70.35
2018-02-25T16:54:36.585Z,71.96
2018-02-25T16:57:05.124Z,71.07
2018-02-25T16:59:33.698Z,71.28
2018-02-25T17:02:02.839Z,71.17
2018-02-25T17:04:31.174Z,71.15
2018-02-25T17:07:07.954Z,71.37
2018-02-25T17:09:37.158Z,72.17
2018-02-25T17:12:05.866Z,72.11
2018-02-25T17:14:41.635Z,72.56
2018-02-25T17:17:10.015Z,72.92
2018-02-25T17:19:38.337Z,72.44
2018-02-25T17:22:07.664Z,72.98
2018-02-25T17:24:36.025Z,72.31
2018-02-25T17:27:10.309Z,72.55
2018-02-25T17:29:38.789Z,72.79
2018-02-25T17:32:07.135Z,72.60
2018-02-25T17:34:35.662Z,72.48
2018-02-25T17:37:04.006Z,72.83
2018-02-25T17:39:32.398Z,72.93
2018-02-25T17:42:00.774Z,72.96
2018-02-25T17:44:29.149Z,72.95
2018-02-25T17:46:57.530Z,73.45
2018-02-25T17:49:25.904Z,73.74
2018-02-25T17:51:54.248Z,73.40
2018-02-25T17:54:22.721Z,73.90
2018-02-25T17:56:51.043Z,73.90
2018-02-25T17:59:19.382Z,73.73
2018-02-25T18:01:47.741Z,73.74
2018-02-25T18:04:16.048Z,73.73
2018-02-25T18:06:44.365Z,74.17
2018-02-25T18:09:12.714Z,74.69
2018-02-25T18:11:41.049Z,74.62
2018-02-25T18:14:09.449Z,75.17
2018-02-25T18:16:37.769Z,76.00
2018-02-25T18:19:06.109Z,76.94
2018-02-25T18:21:34.446Z,76.82
2018-02-25T18:24:02.921Z,77.40
2018-02-25T18:26:32.138Z,78.28
2018-02-25T18:29:00.558Z,78.70
2018-02-25T18:31:28.930Z,78.45
2018-02-25T18:33:57.298Z,78.29
2018-02-25T18:36:25.630Z,78.87
2018-02-25T18:38:54.071Z,79.10
2018-02-25T18:41:22.449Z,79.34
2018-02-25T18:43:50.901Z,79.30
2018-02-25T18:46:20.186Z,79.31
2018-02-25T18:48:48.577Z,79.17
2018-02-25T18:51:16.886Z,79.14
2018-02-25T18:53:45.234Z,79.58
2018-02-25T18:56:13.560Z,80.03
2018-02-25T18:58:42.002Z,80.24
2018-02-25T19:01:10.384Z,80.47
2018-02-25T19:03:38.764Z,80.79
2018-02-25T19:06:07.134Z,81.03
2018-02-25T19:08:35.486Z,81.73
2018-02-25T19:11:03.891Z,82.51
2018-02-25T19:13:32.374Z,82.12
2018-02-25T19:16:01.571Z,82.72
2018-02-25T19:18:29.918Z,83.04
2018-02-25T19:20:58.242Z,82.59
2018-02-25T19:23:26.615Z,83.08
2018-02-25T19:25:54.994Z,83.20
2018-02-25T19:28:23.446Z,83.88
2018-02-25T19:30:51.782Z,84.06
2018-02-25T19:33:20.139Z,84.16
2018-02-25T19:35:54.054Z,84.50
2018-02-25T19:38:27.934Z,84.53
2018-02-25T19:41:01.734Z,84.69
2018-02-25T19:43:30.137Z,84.83
2018-02-25T19:45:58.500Z,85.15
2018-02-25T19:48:27.826Z,85.07
2018-02-25T19:50:56.162Z,85.20
2018-02-25T19:53:24.525Z,85.23
2018-02-25T19:55:53.019Z,85.17
2018-02-25T19:58:21.414Z,85.14
2018-02-25T20:00:49.744Z,85.36
2018-02-25T20:03:18.265Z,85.39
2018-02-25T20:05:46.603Z,85.60
2018-02-25T20:08:14.934Z,85.26
2018-02-25T20:10:43.734Z,85.77
2018-02-25T20:13:12.158Z,85.43
2018-02-25T20:15:40.506Z,85.22
2018-02-25T20:18:08.832Z,85.69
2018-02-25T20:20:37.177Z,85.72
2018-02-25T20:23:05.623Z,85.60
2018-02-25T20:25:34.065Z,85.69
2018-02-25T20:28:02.438Z,85.54
2018-02-25T20:30:30.789Z,85.17
2018-02-25T20:32:59.109Z,85.24
2018-02-25T20:35:28.530Z,85.04
2018-02-25T20:37:57.216Z,84.79
2018-02-25T20:40:25.586Z,84.96
2018-02-25T20:42:54.246Z,84.62
2018-02-25T20:45:22.590Z,83.97
2018-02-25T20:47:50.914Z,84.27
2018-02-25T20:50:19.899Z,84.58
2018-02-25T20:52:48.870Z,84.19
2018-02-25T20:55:17.701Z,83.82
2018-02-25T20:57:46.061Z,83.80
2018-02-25T21:00:14.527Z,83.74
2018-02-25T21:02:42.886Z,83.46
2018-02-25T21:05:11.258Z,83.38
2018-02-25T21:07:39.982Z,83.34
2018-02-25T21:10:08.330Z,82.65
2018-02-25T21:12:36.712Z,82.65
2018-02-25T21:15:05.045Z,82.49
2018-02-25T21:17:33.422Z,82.77
2018-02-25T21:20:01.826Z,83.07
2018-02-25T21:22:30.203Z,82.78
2018-02-25T21:24:58.545Z,83.24
2018-02-25T21:27:26.876Z,83.25
2018-02-25T21:29:55.230Z,83.11
2018-02-25T21:32:23.551Z,83.32
2018-02-25T21:34:51.990Z,83.97
2018-02-25T21:37:20.318Z,84.68
2018-02-25T21:39:48.738Z,84.48
2018-02-25T21:42:17.061Z,84.37
2018-02-25T21:44:45.410Z,84.05
2018-02-25T21:47:13.730Z,84.25
2018-02-25T21:49:42.142Z,84.47
2018-02-25T21:52:10.530Z,84.27
2018-02-25T21:54:44.425Z,84.28
2018-02-25T21:57:18.949Z,84.44
2018-02-25T21:59:52.951Z,84.56
2018-02-25T22:02:27.014Z,84.84
2018-02-25T22:04:55.456Z,84.78
2018-02-25T22:07:23.825Z,84.56
2018-02-25T22:09:52.170Z,84.73
2018-02-25T22:12:20.489Z,84.83
2018-02-25T22:14:48.909Z,84.89
2018-02-25T22:17:17.233Z,84.78
2018-02-25T22:19:45.579Z,84.74
2018-02-25T22:22:14.041Z,84.40
2018-02-25T22:24:42.366Z,84.65
2018-02-25T22:27:10.742Z,84.74
2018-02-25T22:29:39.090Z,84.80
2018-02-25T22:32:07.493Z,85.06
2018-02-25T22:34:35.925Z,85.05
2018-02-25T22:37:04.352Z,84.99
2018-02-25T22:39:32.673Z,84.95
2018-02-25T22:42:01.018Z,85.12
2018-02-25T22:44:29.339Z,85.21
2018-02-25T22:46:57.782Z,85.26
2018-02-25T22:49:26.086Z,85.29
2018-02-25T22:51:54.482Z,85.13
2018-02-25T22:54:22.890Z,85.25
2018-02-25T22:56:51.242Z,85.47
2018-02-25T22:59:19.561Z,85.87
2018-02-25T23:01:47.902Z,85.94
2018-02-25T23:04:16.298Z,86.04
2018-02-25T23:06:44.675Z,86.14
2018-02-25T23:09:13.050Z,85.99
2018-02-25T23:11:41.426Z,85.98
2018-02-25T23:14:09.807Z,86.34
2018-02-25T23:16:38.142Z,86.53
2018-02-25T23:19:06.562Z,86.67
2018-02-25T23:21:34.897Z,86.63
2018-02-25T23:24:03.226Z,86.88
2018-02-25T23:26:31.586Z,86.54
2018-02-25T23:28:59.902Z,86.50
2018-02-25T23:31:28.240Z,86.45
2018-02-25T23:33:56.640Z,86.72
2018-02-25T23:36:24.974Z,86.84
2018-02-25T23:38:53.482Z,86.76
2018-02-25T23:41:21.826Z,86.54
2018-02-25T23:43:50.234Z,86.62
2018-02-25T23:46:18.604Z,86.69
2018-02-25T23:48:46.929Z,86.93
2018-02-25T23:51:15.363Z,87.11
2018-02-25T23:53:43.686Z,86.87
2018-02-25T23:56:12.022Z,86.74
2018-02-25T23:58:40.389Z,86.84
